Airport Information

KBLI - Bellingham Intl Airport

KBLI 191853Z 17012G19KT 10SM CLR 16/08 A3016 RMK AO2 SLP218 T01610083


  • General Information

  • Coordinates: N 48°47'33"/ W 122°32'15"
  • Location: 12 miles South of the Vancuver FIR - departures are with any CZVR Radar Controller
  • Surveyed Elevation: 170 MSL

Operations

Flow Name Active Runways Conditions
North Flow Landing: 34
Departing: 34
Wind Direction: 251-069°
Wind Speed: >10
South Flow Landing: 16
Departing: 16
Wind Direction: 070-250°
Wind Speed: ≤10 or CALM

Green background denotes normal operations.


Common Frequencies

Callsign Frequency Position Name
BLI_GND 121.700 Bellingham Ground
BLI_TWR 124.900 Bellingham Tower
KBLI_ATIS 134.450 Bellingham ATIS

More at the Document Center


Charts